sensor_id;sensor_type;location;lat;lon;timestamp;P1;durP1;ratioP1;P2;durP2;ratioP2
37303;SDS011;23188;51.188;16.374;2022-09-17T00:02:50;3.12;;;1.10;;
37303;SDS011;23188;51.188;16.374;2022-09-17T00:06:55;3.93;;;1.60;;
37303;SDS011;23188;51.188;16.374;2022-09-17T00:10:57;1.00;;;0.85;;
37303;SDS011;23188;51.188;16.374;2022-09-17T00:14:59;2.47;;;1.20;;
37303;SDS011;23188;51.188;16.374;2022-09-17T00:19:00;3.37;;;1.27;;
37303;SDS011;23188;51.188;16.374;2022-09-17T00:23:03;3.25;;;1.05;;
37303;SDS011;23188;51.188;16.374;2022-09-17T00:27:05;2.92;;;1.47;;
37303;SDS011;23188;51.188;16.374;2022-09-17T00:31:09;2.33;;;1.05;;
37303;SDS011;23188;51.188;16.374;2022-09-17T00:35:10;2.25;;;0.80;;
37303;SDS011;23188;51.188;16.374;2022-09-17T00:39:12;4.83;;;1.50;;
37303;SDS011;23188;51.188;16.374;2022-09-17T00:43:30;3.20;;;1.27;;
37303;SDS011;23188;51.188;16.374;2022-09-17T00:47:49;1.72;;;0.75;;
37303;SDS011;23188;51.188;16.374;2022-09-17T00:51:58;1.52;;;0.78;;
37303;SDS011;23188;51.188;16.374;2022-09-17T00:55:58;2.72;;;0.80;;
37303;SDS011;23188;51.188;16.374;2022-09-17T01:00:09;5.08;;;0.98;;
37303;SDS011;23188;51.188;16.374;2022-09-17T01:04:17;2.27;;;0.70;;
37303;SDS011;23188;51.188;16.374;2022-09-17T01:08:25;2.83;;;1.07;;
37303;SDS011;23188;51.188;16.374;2022-09-17T01:12:49;1.03;;;0.93;;
37303;SDS011;23188;51.188;16.374;2022-09-17T01:22:03;2.92;;;0.95;;
37303;SDS011;23188;51.188;16.374;2022-09-17T01:44:21;1.45;;;0.70;;
37303;SDS011;23188;51.188;16.374;2022-09-17T01:48:43;2.92;;;1.00;;
37303;SDS011;23188;51.188;16.374;2022-09-17T01:52:49;1.30;;;0.85;;
37303;SDS011;23188;51.188;16.374;2022-09-17T01:57:12;1.70;;;1.00;;
37303;SDS011;23188;51.188;16.374;2022-09-17T02:01:21;1.10;;;0.70;;
37303;SDS011;23188;51.188;16.374;2022-09-17T02:09:45;4.10;;;0.70;;
37303;SDS011;23188;51.188;16.374;2022-09-17T02:13:52;3.20;;;1.05;;
37303;SDS011;23188;51.188;16.374;2022-09-17T02:18:07;1.03;;;0.80;;
37303;SDS011;23188;51.188;16.374;2022-09-17T02:22:26;3.33;;;2.17;;
37303;SDS011;23188;51.188;16.374;2022-09-17T02:26:31;1.42;;;0.90;;
37303;SDS011;23188;51.188;16.374;2022-09-17T02:30:35;6.45;;;1.95;;
37303;SDS011;23188;51.188;16.374;2022-09-17T02:34:38;2.95;;;1.10;;
37303;SDS011;23188;51.188;16.374;2022-09-17T02:38:42;2.12;;;1.32;;
37303;SDS011;23188;51.188;16.374;2022-09-17T02:47:27;2.72;;;1.17;;
37303;SDS011;23188;51.188;16.374;2022-09-17T02:52:11;1.30;;;0.72;;
37303;SDS011;23188;51.188;16.374;2022-09-17T02:56:52;1.15;;;0.98;;
37303;SDS011;23188;51.188;16.374;2022-09-17T03:00:56;3.05;;;1.15;;
37303;SDS011;23188;51.188;16.374;2022-09-17T03:05:03;4.83;;;1.40;;
37303;SDS011;23188;51.188;16.374;2022-09-17T03:09:08;2.83;;;1.30;;
37303;SDS011;23188;51.188;16.374;2022-09-17T03:13:09;2.00;;;1.07;;
37303;SDS011;23188;51.188;16.374;2022-09-17T03:17:11;2.92;;;1.30;;
37303;SDS011;23188;51.188;16.374;2022-09-17T03:21:14;1.30;;;1.20;;
37303;SDS011;23188;51.188;16.374;2022-09-17T03:25:15;1.92;;;1.42;;
37303;SDS011;23188;51.188;16.374;2022-09-17T03:29:16;2.70;;;1.47;;
37303;SDS011;23188;51.188;16.374;2022-09-17T03:33:18;3.75;;;1.70;;
37303;SDS011;23188;51.188;16.374;2022-09-17T03:37:19;4.72;;;1.40;;
37303;SDS011;23188;51.188;16.374;2022-09-17T03:41:21;3.22;;;1.45;;
37303;SDS011;23188;51.188;16.374;2022-09-17T03:45:23;2.85;;;1.62;;
37303;SDS011;23188;51.188;16.374;2022-09-17T03:49:24;2.58;;;1.50;;
37303;SDS011;23188;51.188;16.374;2022-09-17T03:53:25;18.87;;;2.27;;
37303;SDS011;23188;51.188;16.374;2022-09-17T03:57:27;2.85;;;1.05;;
37303;SDS011;23188;51.188;16.374;2022-09-17T04:01:28;3.45;;;1.72;;
37303;SDS011;23188;51.188;16.374;2022-09-17T04:05:29;2.52;;;1.62;;
37303;SDS011;23188;51.188;16.374;2022-09-17T04:09:31;3.65;;;1.45;;
37303;SDS011;23188;51.188;16.374;2022-09-17T04:13:32;4.30;;;1.50;;
37303;SDS011;23188;51.188;16.374;2022-09-17T04:17:33;7.15;;;1.60;;
37303;SDS011;23188;51.188;16.374;2022-09-17T04:21:34;4.20;;;2.40;;
37303;SDS011;23188;51.188;16.374;2022-09-17T04:25:36;2.90;;;1.52;;
37303;SDS011;23188;51.188;16.374;2022-09-17T04:29:37;4.55;;;1.60;;
37303;SDS011;23188;51.188;16.374;2022-09-17T04:33:38;3.90;;;2.00;;
37303;SDS011;23188;51.188;16.374;2022-09-17T04:37:39;2.47;;;1.37;;
37303;SDS011;23188;51.188;16.374;2022-09-17T04:41:41;6.00;;;2.10;;
37303;SDS011;23188;51.188;16.374;2022-09-17T04:45:45;3.83;;;1.98;;
37303;SDS011;23188;51.188;16.374;2022-09-17T04:53:49;6.67;;;2.62;;
37303;SDS011;23188;51.188;16.374;2022-09-17T04:57:51;7.72;;;2.02;;
37303;SDS011;23188;51.188;16.374;2022-09-17T05:01:53;12.05;;;2.45;;
37303;SDS011;23188;51.188;16.374;2022-09-17T05:05:54;15.65;;;2.10;;
37303;SDS011;23188;51.188;16.374;2022-09-17T05:09:56;4.83;;;1.77;;
37303;SDS011;23188;51.188;16.374;2022-09-17T05:13:57;3.65;;;2.22;;
37303;SDS011;23188;51.188;16.374;2022-09-17T05:17:58;7.37;;;1.55;;
37303;SDS011;23188;51.188;16.374;2022-09-17T05:22:00;3.15;;;1.85;;
37303;SDS011;23188;51.188;16.374;2022-09-17T05:26:01;5.22;;;1.37;;
37303;SDS011;23188;51.188;16.374;2022-09-17T05:30:03;3.92;;;2.40;;
37303;SDS011;23188;51.188;16.374;2022-09-17T05:34:07;4.92;;;1.92;;
37303;SDS011;23188;51.188;16.374;2022-09-17T05:38:08;8.28;;;2.12;;
37303;SDS011;23188;51.188;16.374;2022-09-17T05:42:10;3.20;;;2.35;;
37303;SDS011;23188;51.188;16.374;2022-09-17T05:46:11;4.92;;;2.40;;
37303;SDS011;23188;51.188;16.374;2022-09-17T05:50:12;6.40;;;2.85;;
37303;SDS011;23188;51.188;16.374;2022-09-17T05:54:14;3.05;;;1.60;;
37303;SDS011;23188;51.188;16.374;2022-09-17T05:58:16;5.87;;;2.27;;
37303;SDS011;23188;51.188;16.374;2022-09-17T06:02:19;8.33;;;2.58;;
37303;SDS011;23188;51.188;16.374;2022-09-17T06:06:20;5.33;;;1.87;;
37303;SDS011;23188;51.188;16.374;2022-09-17T06:10:21;4.45;;;2.20;;
37303;SDS011;23188;51.188;16.374;2022-09-17T06:14:23;2.65;;;1.70;;
37303;SDS011;23188;51.188;16.374;2022-09-17T06:18:24;17.48;;;4.40;;
37303;SDS011;23188;51.188;16.374;2022-09-17T06:22:27;6.58;;;3.27;;
37303;SDS011;23188;51.188;16.374;2022-09-17T06:26:28;9.30;;;3.65;;
37303;SDS011;23188;51.188;16.374;2022-09-17T06:30:30;6.95;;;2.90;;
37303;SDS011;23188;51.188;16.374;2022-09-17T06:34:31;7.28;;;2.95;;
37303;SDS011;23188;51.188;16.374;2022-09-17T06:38:33;8.08;;;4.03;;
37303;SDS011;23188;51.188;16.374;2022-09-17T06:42:36;5.53;;;3.00;;
37303;SDS011;23188;51.188;16.374;2022-09-17T06:46:37;6.28;;;3.52;;
37303;SDS011;23188;51.188;16.374;2022-09-17T06:50:38;18.37;;;3.33;;
37303;SDS011;23188;51.188;16.374;2022-09-17T06:54:39;4.33;;;3.40;;
37303;SDS011;23188;51.188;16.374;2022-09-17T06:58:41;4.28;;;3.02;;
37303;SDS011;23188;51.188;16.374;2022-09-17T07:02:43;3.87;;;2.85;;
37303;SDS011;23188;51.188;16.374;2022-09-17T07:06:57;6.90;;;3.67;;
37303;SDS011;23188;51.188;16.374;2022-09-17T07:10:58;9.35;;;3.20;;
37303;SDS011;23188;51.188;16.374;2022-09-17T07:15:00;4.40;;;2.92;;
37303;SDS011;23188;51.188;16.374;2022-09-17T07:19:02;3.98;;;2.60;;
37303;SDS011;23188;51.188;16.374;2022-09-17T07:23:05;6.20;;;2.37;;
37303;SDS011;23188;51.188;16.374;2022-09-17T07:27:07;10.03;;;2.98;;
37303;SDS011;23188;51.188;16.374;2022-09-17T07:31:08;6.53;;;3.52;;
37303;SDS011;23188;51.188;16.374;2022-09-17T07:35:11;7.37;;;3.77;;
37303;SDS011;23188;51.188;16.374;2022-09-17T07:39:12;6.45;;;3.95;;
37303;SDS011;23188;51.188;16.374;2022-09-17T07:43:14;6.58;;;3.42;;
37303;SDS011;23188;51.188;16.374;2022-09-17T07:47:15;9.53;;;3.37;;
37303;SDS011;23188;51.188;16.374;2022-09-17T07:51:17;9.60;;;2.75;;
37303;SDS011;23188;51.188;16.374;2022-09-17T07:55:21;4.00;;;3.17;;
37303;SDS011;23188;51.188;16.374;2022-09-17T07:59:23;6.55;;;3.02;;
37303;SDS011;23188;51.188;16.374;2022-09-17T08:03:24;2.62;;;1.80;;
37303;SDS011;23188;51.188;16.374;2022-09-17T08:07:25;4.55;;;1.95;;
37303;SDS011;23188;51.188;16.374;2022-09-17T08:11:27;2.83;;;2.50;;
37303;SDS011;23188;51.188;16.374;2022-09-17T08:15:30;3.83;;;2.75;;
37303;SDS011;23188;51.188;16.374;2022-09-17T08:19:32;5.12;;;2.83;;
37303;SDS011;23188;51.188;16.374;2022-09-17T08:23:34;5.58;;;2.55;;
37303;SDS011;23188;51.188;16.374;2022-09-17T08:27:37;6.33;;;2.70;;
37303;SDS011;23188;51.188;16.374;2022-09-17T08:31:38;3.67;;;2.40;;
37303;SDS011;23188;51.188;16.374;2022-09-17T08:35:40;6.33;;;3.33;;
37303;SDS011;23188;51.188;16.374;2022-09-17T08:39:41;5.35;;;2.00;;
37303;SDS011;23188;51.188;16.374;2022-09-17T08:48:09;4.05;;;2.77;;
37303;SDS011;23188;51.188;16.374;2022-09-17T08:52:23;6.80;;;4.30;;
37303;SDS011;23188;51.188;16.374;2022-09-17T09:06:12;4.78;;;2.80;;
37303;SDS011;23188;51.188;16.374;2022-09-17T09:10:24;4.47;;;4.10;;
37303;SDS011;23188;51.188;16.374;2022-09-17T09:19:51;4.15;;;2.80;;
37303;SDS011;23188;51.188;16.374;2022-09-17T09:27:40;5.37;;;2.27;;
37303;SDS011;23188;51.188;16.374;2022-09-17T09:36:27;3.42;;;2.80;;
37303;SDS011;23188;51.188;16.374;2022-09-17T09:40:36;5.55;;;1.75;;
37303;SDS011;23188;51.188;16.374;2022-09-17T09:44:48;2.80;;;1.80;;
37303;SDS011;23188;51.188;16.374;2022-09-17T09:57:35;2.25;;;1.62;;
37303;SDS011;23188;51.188;16.374;2022-09-17T10:01:50;1.70;;;1.35;;
37303;SDS011;23188;51.188;16.374;2022-09-17T10:10:07;7.75;;;2.17;;
37303;SDS011;23188;51.188;16.374;2022-09-17T10:18:24;2.30;;;1.25;;
37303;SDS011;23188;51.188;16.374;2022-09-17T10:22:28;5.12;;;2.37;;
37303;SDS011;23188;51.188;16.374;2022-09-17T10:26:32;2.22;;;1.70;;
37303;SDS011;23188;51.188;16.374;2022-09-17T10:30:36;2.58;;;1.30;;
37303;SDS011;23188;51.188;16.374;2022-09-17T10:34:37;3.87;;;1.67;;
37303;SDS011;23188;51.188;16.374;2022-09-17T10:38:42;6.55;;;1.52;;
37303;SDS011;23188;51.188;16.374;2022-09-17T10:42:47;1.62;;;1.15;;
37303;SDS011;23188;51.188;16.374;2022-09-17T10:46:51;3.95;;;1.45;;
37303;SDS011;23188;51.188;16.374;2022-09-17T10:50:53;5.00;;;1.92;;
37303;SDS011;23188;51.188;16.374;2022-09-17T10:55:14;2.98;;;1.10;;
37303;SDS011;23188;51.188;16.374;2022-09-17T11:08:41;2.92;;;1.72;;
37303;SDS011;23188;51.188;16.374;2022-09-17T11:35:02;1.15;;;0.62;;
37303;SDS011;23188;51.188;16.374;2022-09-17T11:39:31;0.90;;;0.85;;
37303;SDS011;23188;51.188;16.374;2022-09-17T11:43:42;2.72;;;0.60;;
37303;SDS011;23188;51.188;16.374;2022-09-17T11:52:26;2.67;;;0.95;;
37303;SDS011;23188;51.188;16.374;2022-09-17T12:00:49;1.52;;;0.78;;
37303;SDS011;23188;51.188;16.374;2022-09-17T12:04:59;6.00;;;1.12;;
37303;SDS011;23188;51.188;16.374;2022-09-17T12:18:06;3.70;;;1.92;;
37303;SDS011;23188;51.188;16.374;2022-09-17T12:22:22;2.72;;;1.62;;
37303;SDS011;23188;51.188;16.374;2022-09-17T12:31:04;3.17;;;1.62;;
37303;SDS011;23188;51.188;16.374;2022-09-17T12:39:57;2.95;;;1.42;;
37303;SDS011;23188;51.188;16.374;2022-09-17T13:02:21;5.60;;;0.95;;
37303;SDS011;23188;51.188;16.374;2022-09-17T13:11:12;3.55;;;1.45;;
37303;SDS011;23188;51.188;16.374;2022-09-17T13:20:02;3.15;;;1.40;;
37303;SDS011;23188;51.188;16.374;2022-09-17T13:24:23;4.47;;;1.35;;
37303;SDS011;23188;51.188;16.374;2022-09-17T13:28:36;2.20;;;1.47;;
37303;SDS011;23188;51.188;16.374;2022-09-17T13:32:50;3.75;;;1.65;;
37303;SDS011;23188;51.188;16.374;2022-09-17T13:36:53;2.47;;;1.37;;
37303;SDS011;23188;51.188;16.374;2022-09-17T13:41:16;3.87;;;1.12;;
37303;SDS011;23188;51.188;16.374;2022-09-17T13:45:21;2.30;;;1.45;;
37303;SDS011;23188;51.188;16.374;2022-09-17T13:49:24;1.32;;;0.70;;
37303;SDS011;23188;51.188;16.374;2022-09-17T13:53:26;4.83;;;0.98;;
37303;SDS011;23188;51.188;16.374;2022-09-17T13:57:29;3.52;;;0.78;;
37303;SDS011;23188;51.188;16.374;2022-09-17T14:10:39;8.30;;;1.00;;
37303;SDS011;23188;51.188;16.374;2022-09-17T14:14:45;3.17;;;1.40;;
37303;SDS011;23188;51.188;16.374;2022-09-17T14:23:41;1.73;;;1.50;;
37303;SDS011;23188;51.188;16.374;2022-09-17T14:27:47;4.92;;;1.77;;
37303;SDS011;23188;51.188;16.374;2022-09-17T14:32:04;3.87;;;1.25;;
37303;SDS011;23188;51.188;16.374;2022-09-17T14:36:08;4.05;;;0.88;;
37303;SDS011;23188;51.188;16.374;2022-09-17T14:40:16;4.25;;;1.52;;
37303;SDS011;23188;51.188;16.374;2022-09-17T14:44:20;3.83;;;1.40;;
37303;SDS011;23188;51.188;16.374;2022-09-17T14:48:27;1.20;;;0.95;;
37303;SDS011;23188;51.188;16.374;2022-09-17T14:52:31;2.70;;;0.88;;
37303;SDS011;23188;51.188;16.374;2022-09-17T14:56:33;1.60;;;0.70;;
37303;SDS011;23188;51.188;16.374;2022-09-17T15:00:40;3.40;;;0.65;;
37303;SDS011;23188;51.188;16.374;2022-09-17T15:04:47;2.30;;;0.88;;
37303;SDS011;23188;51.188;16.374;2022-09-17T15:08:48;2.37;;;1.12;;
37303;SDS011;23188;51.188;16.374;2022-09-17T15:12:50;3.25;;;0.78;;
37303;SDS011;23188;51.188;16.374;2022-09-17T15:16:53;2.42;;;0.75;;
37303;SDS011;23188;51.188;16.374;2022-09-17T15:20:57;1.90;;;0.90;;
37303;SDS011;23188;51.188;16.374;2022-09-17T15:25:09;2.40;;;1.87;;
37303;SDS011;23188;51.188;16.374;2022-09-17T15:29:19;2.95;;;0.95;;
37303;SDS011;23188;51.188;16.374;2022-09-17T15:33:25;2.83;;;1.42;;
37303;SDS011;23188;51.188;16.374;2022-09-17T15:37:29;2.85;;;0.70;;
37303;SDS011;23188;51.188;16.374;2022-09-17T15:41:35;1.62;;;1.10;;
37303;SDS011;23188;51.188;16.374;2022-09-17T15:45:35;3.58;;;1.22;;
37303;SDS011;23188;51.188;16.374;2022-09-17T15:49:38;2.10;;;1.75;;
37303;SDS011;23188;51.188;16.374;2022-09-17T15:53:49;1.35;;;0.78;;
37303;SDS011;23188;51.188;16.374;2022-09-17T15:57:52;2.77;;;0.88;;
37303;SDS011;23188;51.188;16.374;2022-09-17T16:01:55;4.10;;;1.27;;
37303;SDS011;23188;51.188;16.374;2022-09-17T16:06:00;2.55;;;1.40;;
37303;SDS011;23188;51.188;16.374;2022-09-17T16:10:01;5.35;;;1.90;;
37303;SDS011;23188;51.188;16.374;2022-09-17T16:14:03;4.87;;;1.02;;
37303;SDS011;23188;51.188;16.374;2022-09-17T16:18:05;4.37;;;1.22;;
37303;SDS011;23188;51.188;16.374;2022-09-17T16:22:08;2.47;;;1.10;;
37303;SDS011;23188;51.188;16.374;2022-09-17T16:26:14;5.15;;;1.25;;
37303;SDS011;23188;51.188;16.374;2022-09-17T16:30:23;3.70;;;1.25;;
37303;SDS011;23188;51.188;16.374;2022-09-17T16:34:25;1.70;;;1.40;;
37303;SDS011;23188;51.188;16.374;2022-09-17T16:38:27;1.62;;;0.93;;
37303;SDS011;23188;51.188;16.374;2022-09-17T16:42:31;1.82;;;1.32;;
37303;SDS011;23188;51.188;16.374;2022-09-17T16:46:33;1.30;;;0.70;;
37303;SDS011;23188;51.188;16.374;2022-09-17T16:50:38;2.95;;;1.72;;
37303;SDS011;23188;51.188;16.374;2022-09-17T16:54:40;4.35;;;1.07;;
37303;SDS011;23188;51.188;16.374;2022-09-17T16:58:42;3.20;;;1.72;;
37303;SDS011;23188;51.188;16.374;2022-09-17T17:02:43;3.02;;;1.60;;
37303;SDS011;23188;51.188;16.374;2022-09-17T17:06:54;3.40;;;1.32;;
37303;SDS011;23188;51.188;16.374;2022-09-17T17:10:55;3.77;;;1.30;;
37303;SDS011;23188;51.188;16.374;2022-09-17T17:14:57;3.80;;;1.55;;
37303;SDS011;23188;51.188;16.374;2022-09-17T17:18:58;2.45;;;1.35;;
37303;SDS011;23188;51.188;16.374;2022-09-17T17:23:00;2.22;;;1.17;;
37303;SDS011;23188;51.188;16.374;2022-09-17T17:27:02;2.75;;;1.40;;
37303;SDS011;23188;51.188;16.374;2022-09-17T17:31:03;5.78;;;2.17;;
37303;SDS011;23188;51.188;16.374;2022-09-17T17:35:06;3.10;;;2.20;;
37303;SDS011;23188;51.188;16.374;2022-09-17T17:39:08;5.30;;;1.95;;
37303;SDS011;23188;51.188;16.374;2022-09-17T17:43:09;7.20;;;1.77;;
37303;SDS011;23188;51.188;16.374;2022-09-17T17:47:12;4.17;;;2.72;;
37303;SDS011;23188;51.188;16.374;2022-09-17T17:51:14;4.33;;;2.25;;
37303;SDS011;23188;51.188;16.374;2022-09-17T17:55:18;7.47;;;2.45;;
37303;SDS011;23188;51.188;16.374;2022-09-17T17:59:19;2.25;;;1.17;;
37303;SDS011;23188;51.188;16.374;2022-09-17T18:03:21;4.53;;;1.25;;
37303;SDS011;23188;51.188;16.374;2022-09-17T18:07:27;5.33;;;1.45;;
37303;SDS011;23188;51.188;16.374;2022-09-17T18:11:29;5.55;;;2.27;;
37303;SDS011;23188;51.188;16.374;2022-09-17T18:15:31;2.80;;;1.98;;
37303;SDS011;23188;51.188;16.374;2022-09-17T18:19:32;4.10;;;1.40;;
37303;SDS011;23188;51.188;16.374;2022-09-17T18:23:34;4.65;;;1.80;;
37303;SDS011;23188;51.188;16.374;2022-09-17T18:27:38;4.33;;;1.50;;
37303;SDS011;23188;51.188;16.374;2022-09-17T18:31:40;6.00;;;2.20;;
37303;SDS011;23188;51.188;16.374;2022-09-17T18:35:41;4.58;;;2.02;;
37303;SDS011;23188;51.188;16.374;2022-09-17T18:39:43;2.45;;;1.67;;
37303;SDS011;23188;51.188;16.374;2022-09-17T18:43:44;13.68;;;2.30;;
37303;SDS011;23188;51.188;16.374;2022-09-17T18:47:45;4.47;;;1.98;;
37303;SDS011;23188;51.188;16.374;2022-09-17T18:51:46;4.78;;;2.37;;
37303;SDS011;23188;51.188;16.374;2022-09-17T18:55:47;3.95;;;1.85;;
37303;SDS011;23188;51.188;16.374;2022-09-17T18:59:49;6.08;;;2.35;;
37303;SDS011;23188;51.188;16.374;2022-09-17T19:03:50;8.45;;;3.02;;
37303;SDS011;23188;51.188;16.374;2022-09-17T19:07:55;3.90;;;1.72;;
37303;SDS011;23188;51.188;16.374;2022-09-17T19:11:56;3.00;;;2.37;;
37303;SDS011;23188;51.188;16.374;2022-09-17T19:15:57;4.67;;;2.30;;
37303;SDS011;23188;51.188;16.374;2022-09-17T19:19:59;8.80;;;2.08;;
37303;SDS011;23188;51.188;16.374;2022-09-17T19:24:00;4.40;;;2.00;;
37303;SDS011;23188;51.188;16.374;2022-09-17T19:28:03;6.22;;;2.50;;
37303;SDS011;23188;51.188;16.374;2022-09-17T19:32:04;3.05;;;1.65;;
37303;SDS011;23188;51.188;16.374;2022-09-17T19:36:07;6.33;;;2.45;;
37303;SDS011;23188;51.188;16.374;2022-09-17T19:44:13;5.40;;;2.72;;
37303;SDS011;23188;51.188;16.374;2022-09-17T19:48:15;6.92;;;2.75;;
37303;SDS011;23188;51.188;16.374;2022-09-17T19:52:17;10.35;;;2.35;;
37303;SDS011;23188;51.188;16.374;2022-09-17T19:56:20;4.75;;;1.90;;
37303;SDS011;23188;51.188;16.374;2022-09-17T20:00:24;4.08;;;2.33;;
37303;SDS011;23188;51.188;16.374;2022-09-17T20:04:26;10.70;;;2.85;;
37303;SDS011;23188;51.188;16.374;2022-09-17T20:08:27;8.15;;;3.17;;
37303;SDS011;23188;51.188;16.374;2022-09-17T20:12:28;6.58;;;3.10;;
37303;SDS011;23188;51.188;16.374;2022-09-17T20:16:30;5.62;;;3.45;;
37303;SDS011;23188;51.188;16.374;2022-09-17T20:20:32;4.03;;;3.00;;
37303;SDS011;23188;51.188;16.374;2022-09-17T20:24:33;12.85;;;3.45;;
37303;SDS011;23188;51.188;16.374;2022-09-17T20:28:34;5.37;;;2.45;;
37303;SDS011;23188;51.188;16.374;2022-09-17T20:32:35;10.35;;;2.70;;
37303;SDS011;23188;51.188;16.374;2022-09-17T20:36:37;4.97;;;2.08;;
37303;SDS011;23188;51.188;16.374;2022-09-17T20:40:39;7.92;;;2.72;;
37303;SDS011;23188;51.188;16.374;2022-09-17T20:44:40;9.58;;;2.58;;
37303;SDS011;23188;51.188;16.374;2022-09-17T20:48:41;3.65;;;1.70;;
37303;SDS011;23188;51.188;16.374;2022-09-17T20:52:43;4.67;;;3.47;;
37303;SDS011;23188;51.188;16.374;2022-09-17T20:56:44;10.85;;;2.98;;
37303;SDS011;23188;51.188;16.374;2022-09-17T21:00:46;7.10;;;3.20;;
37303;SDS011;23188;51.188;16.374;2022-09-17T21:04:47;6.25;;;2.75;;
37303;SDS011;23188;51.188;16.374;2022-09-17T21:08:50;4.60;;;1.90;;
37303;SDS011;23188;51.188;16.374;2022-09-17T21:12:53;9.88;;;2.87;;
37303;SDS011;23188;51.188;16.374;2022-09-17T21:16:55;5.08;;;2.02;;
37303;SDS011;23188;51.188;16.374;2022-09-17T21:20:59;4.85;;;2.98;;
37303;SDS011;23188;51.188;16.374;2022-09-17T21:25:04;5.62;;;2.75;;
37303;SDS011;23188;51.188;16.374;2022-09-17T21:29:06;4.45;;;2.17;;
37303;SDS011;23188;51.188;16.374;2022-09-17T21:33:08;5.95;;;2.12;;
37303;SDS011;23188;51.188;16.374;2022-09-17T21:37:09;5.97;;;2.60;;
37303;SDS011;23188;51.188;16.374;2022-09-17T21:41:12;8.43;;;3.10;;
37303;SDS011;23188;51.188;16.374;2022-09-17T21:45:15;3.87;;;2.20;;
37303;SDS011;23188;51.188;16.374;2022-09-17T21:49:16;7.20;;;3.22;;
37303;SDS011;23188;51.188;16.374;2022-09-17T21:53:18;6.28;;;3.30;;
37303;SDS011;23188;51.188;16.374;2022-09-17T21:57:19;7.22;;;2.62;;
37303;SDS011;23188;51.188;16.374;2022-09-17T22:01:21;4.58;;;2.10;;
37303;SDS011;23188;51.188;16.374;2022-09-17T22:05:25;2.37;;;1.77;;
37303;SDS011;23188;51.188;16.374;2022-09-17T22:09:26;4.12;;;2.10;;
37303;SDS011;23188;51.188;16.374;2022-09-17T22:13:29;4.75;;;2.08;;
37303;SDS011;23188;51.188;16.374;2022-09-17T22:17:31;2.85;;;1.55;;
37303;SDS011;23188;51.188;16.374;2022-09-17T22:21:33;7.25;;;2.12;;
37303;SDS011;23188;51.188;16.374;2022-09-17T22:25:38;10.88;;;2.27;;
37303;SDS011;23188;51.188;16.374;2022-09-17T22:29:40;3.33;;;1.77;;
37303;SDS011;23188;51.188;16.374;2022-09-17T22:33:43;3.37;;;2.05;;
37303;SDS011;23188;51.188;16.374;2022-09-17T22:37:46;6.60;;;1.75;;
37303;SDS011;23188;51.188;16.374;2022-09-17T22:41:47;9.80;;;2.52;;
37303;SDS011;23188;51.188;16.374;2022-09-17T22:45:49;3.25;;;1.67;;
37303;SDS011;23188;51.188;16.374;2022-09-17T22:49:50;4.25;;;1.72;;
37303;SDS011;23188;51.188;16.374;2022-09-17T22:53:52;3.87;;;1.50;;
37303;SDS011;23188;51.188;16.374;2022-09-17T22:57:53;3.33;;;1.90;;
37303;SDS011;23188;51.188;16.374;2022-09-17T23:01:55;2.40;;;1.32;;
37303;SDS011;23188;51.188;16.374;2022-09-17T23:05:57;5.20;;;1.27;;
37303;SDS011;23188;51.188;16.374;2022-09-17T23:10:01;5.35;;;1.67;;
37303;SDS011;23188;51.188;16.374;2022-09-17T23:14:05;5.80;;;1.98;;
37303;SDS011;23188;51.188;16.374;2022-09-17T23:18:09;4.17;;;1.37;;
37303;SDS011;23188;51.188;16.374;2022-09-17T23:22:11;7.42;;;1.57;;
37303;SDS011;23188;51.188;16.374;2022-09-17T23:26:21;4.40;;;1.65;;
37303;SDS011;23188;51.188;16.374;2022-09-17T23:30:21;5.50;;;1.32;;
37303;SDS011;23188;51.188;16.374;2022-09-17T23:34:25;5.78;;;1.60;;
37303;SDS011;23188;51.188;16.374;2022-09-17T23:38:26;5.58;;;1.70;;
37303;SDS011;23188;51.188;16.374;2022-09-17T23:42:27;3.67;;;1.72;;
37303;SDS011;23188;51.188;16.374;2022-09-17T23:46:29;3.55;;;1.62;;
37303;SDS011;23188;51.188;16.374;2022-09-17T23:50:33;4.40;;;1.33;;
37303;SDS011;23188;51.188;16.374;2022-09-17T23:54:35;3.58;;;0.82;;
37303;SDS011;23188;51.188;16.374;2022-09-17T23:58:36;8.25;;;1.40;;
